createdAt,value
2022-12-23T00:00:39.777Z,96913.40
2022-12-23T00:03:07.044Z,96913.00
2022-12-23T00:05:40.326Z,96917.20
2022-12-23T00:08:08.339Z,96913.20
2022-12-23T00:10:38.488Z,96913.20
2022-12-23T00:13:23.924Z,96911.40
2022-12-23T00:15:50.761Z,96910.20
2022-12-23T00:18:17.541Z,96906.20
2022-12-23T00:20:44.278Z,96911.40
2022-12-23T00:23:10.983Z,96910.60
2022-12-23T00:25:42.405Z,96913.20
2022-12-23T00:28:29.078Z,96914.00
2022-12-23T00:30:55.830Z,96909.40
2022-12-23T00:33:25.225Z,96909.40
2022-12-23T00:35:52.450Z,96908.60
2022-12-23T00:38:39.965Z,96904.00
2022-12-23T00:41:33.069Z,96898.00
2022-12-23T00:44:00.611Z,96901.80
2022-12-23T00:46:28.007Z,96899.20
2022-12-23T00:49:13.501Z,96899.40
2022-12-23T00:51:40.284Z,96899.40
2022-12-23T00:54:07.730Z,96895.00
2022-12-23T00:56:34.723Z,96889.80
2022-12-23T00:59:01.534Z,96888.20
2022-12-23T01:01:47.072Z,96887.40
2022-12-23T01:04:33.920Z,96890.60
2022-12-23T01:07:01.377Z,96889.40
2022-12-23T01:09:28.374Z,96883.80
2022-12-23T01:11:55.168Z,96877.00
2022-12-23T01:14:22.320Z,96874.80
2022-12-23T01:16:49.344Z,96873.60
2022-12-23T01:19:16.644Z,96873.40
2022-12-23T01:21:43.378Z,96872.40
2022-12-23T01:24:10.105Z,96873.40
2022-12-23T01:26:36.839Z,96871.40
2022-12-23T01:29:04.108Z,96868.00
2022-12-23T01:31:30.869Z,96864.80
2022-12-23T01:33:57.698Z,96849.20
2022-12-23T01:36:24.903Z,96853.00
2022-12-23T01:38:52.461Z,96855.80
2022-12-23T01:41:40.517Z,96852.00
2022-12-23T01:44:51.042Z,96829.60
2022-12-23T01:47:36.064Z,96842.40
2022-12-23T01:50:11.932Z,96841.40
2022-12-23T01:52:47.132Z,96836.80
2022-12-23T01:55:16.546Z,96843.60
2022-12-23T01:57:44.621Z,96837.60
2022-12-23T02:00:31.533Z,96835.20
2022-12-23T02:03:17.307Z,96835.40
2022-12-23T02:05:46.312Z,96840.80
2022-12-23T02:08:34.751Z,96842.20
2022-12-23T02:11:39.127Z,96836.20
2022-12-23T02:14:55.944Z,96833.80
2022-12-23T02:17:37.369Z,96839.80
2022-12-23T02:20:15.288Z,96835.80
2022-12-23T02:22:44.981Z,96839.20
2022-12-23T02:25:14.391Z,96837.60
2022-12-23T02:28:09.024Z,96840.20
2022-12-23T02:30:57.072Z,96842.20
2022-12-23T02:33:53.317Z,96848.00
2022-12-23T02:36:34.706Z,96846.40
2022-12-23T02:39:11.987Z,96836.20
2022-12-23T02:41:51.007Z,96834.60
2022-12-23T02:44:32.744Z,96822.60
2022-12-23T02:47:05.938Z,96812.00
2022-12-23T02:49:36.656Z,96808.00
2022-12-23T02:52:12.832Z,96806.40
2022-12-23T02:54:45.171Z,96809.80
2022-12-23T02:57:14.714Z,96797.20
2022-12-23T02:59:47.380Z,96793.20
2022-12-23T03:02:14.262Z,96797.20
2022-12-23T03:04:42.436Z,96796.60
2022-12-23T03:07:31.578Z,96801.00
2022-12-23T03:10:08.557Z,96802.60
2022-12-23T03:13:02.733Z,96801.00
2022-12-23T03:15:57.604Z,96800.20
2022-12-23T03:18:51.195Z,96796.40
2022-12-23T03:21:30.375Z,96775.40
2022-12-23T03:24:03.223Z,96769.00
2022-12-23T03:26:34.149Z,96767.20
2022-12-23T03:29:08.807Z,96765.00
2022-12-23T03:31:37.923Z,96764.20
2022-12-23T03:34:10.557Z,96781.00
2022-12-23T03:36:46.751Z,96790.40
2022-12-23T03:39:19.582Z,96789.20
2022-12-23T03:42:15.772Z,96794.40
2022-12-23T03:45:10.748Z,96801.00
2022-12-23T03:47:45.598Z,96801.00
2022-12-23T03:50:16.005Z,96797.40
2022-12-23T03:53:02.579Z,96787.60
2022-12-23T03:55:44.481Z,96782.80
2022-12-23T03:58:33.952Z,96788.00
2022-12-23T04:01:21.001Z,96795.80
2022-12-23T04:04:07.106Z,96816.00
2022-12-23T04:06:41.097Z,96816.00
2022-12-23T04:09:08.870Z,96805.80
2022-12-23T04:11:36.725Z,96806.80
2022-12-23T04:14:03.490Z,96809.80
2022-12-23T04:16:30.613Z,96810.80
2022-12-23T04:18:57.404Z,96808.40
2022-12-23T04:21:24.174Z,96812.60
2022-12-23T04:23:50.875Z,96807.60
2022-12-23T04:26:17.652Z,96809.40
2022-12-23T04:28:44.307Z,96814.40
2022-12-23T04:31:11.067Z,96812.80
2022-12-23T04:33:37.827Z,96808.20
2022-12-23T04:36:04.967Z,96815.40
2022-12-23T04:38:31.672Z,96807.40
2022-12-23T04:40:58.326Z,96808.20
2022-12-23T04:43:25.036Z,96820.40
2022-12-23T04:45:52.038Z,96826.60
2022-12-23T04:48:19.334Z,96822.60
2022-12-23T04:50:46.053Z,96822.80
2022-12-23T04:53:12.763Z,96833.00
2022-12-23T04:55:39.554Z,96820.20
2022-12-23T04:58:06.236Z,96818.00
2022-12-23T05:00:39.192Z,96815.60
2022-12-23T05:03:06.768Z,96810.00
2022-12-23T05:05:33.663Z,96791.80
2022-12-23T05:08:05.444Z,96782.00
2022-12-23T05:10:32.577Z,96783.40
2022-12-23T05:12:59.298Z,96771.20
2022-12-23T05:15:26.019Z,96767.00
2022-12-23T05:17:52.671Z,96761.20
2022-12-23T05:20:19.451Z,96755.00
2022-12-23T05:22:46.159Z,96763.20
2022-12-23T05:25:12.933Z,96758.00
2022-12-23T05:27:39.620Z,96758.00
2022-12-23T05:30:07.657Z,96759.40
2022-12-23T05:32:34.374Z,96752.20
2022-12-23T05:35:01.114Z,96766.80
2022-12-23T05:37:27.778Z,96769.40
2022-12-23T05:39:54.443Z,96760.80
2022-12-23T05:42:21.230Z,96760.20
2022-12-23T05:44:47.974Z,96758.40
2022-12-23T05:47:14.845Z,96762.60
2022-12-23T05:49:41.482Z,96767.00
2022-12-23T05:52:08.171Z,96769.40
2022-12-23T05:54:34.876Z,96773.00
2022-12-23T05:57:01.622Z,96777.60
2022-12-23T05:59:31.237Z,96782.00
2022-12-23T06:01:58.365Z,96793.00
2022-12-23T06:04:25.324Z,96796.20
2022-12-23T06:06:52.155Z,96791.60
2022-12-23T06:09:18.851Z,96799.20
2022-12-23T06:11:45.590Z,96796.80
2022-12-23T06:14:12.629Z,96798.00
2022-12-23T06:16:39.420Z,96793.80
2022-12-23T06:19:06.206Z,96793.00
2022-12-23T06:21:33.370Z,96786.40
2022-12-23T06:24:00.371Z,96786.80
2022-12-23T06:26:27.364Z,96790.80
2022-12-23T06:28:54.119Z,96794.00
2022-12-23T06:31:21.193Z,96798.20
2022-12-23T06:33:47.961Z,96795.00
2022-12-23T06:36:14.736Z,96795.60
2022-12-23T06:38:41.454Z,96797.00
2022-12-23T06:41:08.203Z,96798.80
2022-12-23T06:43:35.157Z,96803.80
2022-12-23T06:46:02.106Z,96806.40
2022-12-23T06:48:28.932Z,96812.80
2022-12-23T06:50:55.713Z,96809.20
2022-12-23T06:53:22.426Z,96812.60
2022-12-23T06:55:49.141Z,96817.00
2022-12-23T06:58:15.908Z,96818.60
2022-12-23T07:00:42.607Z,96819.00
2022-12-23T07:03:09.479Z,96822.80
2022-12-23T07:05:37.729Z,96818.00
2022-12-23T07:08:05.319Z,96824.00
2022-12-23T07:10:32.162Z,96827.60
2022-12-23T07:12:58.820Z,96820.20
2022-12-23T07:15:25.515Z,96834.40
2022-12-23T07:17:54.220Z,96834.80
2022-12-23T07:20:20.954Z,96838.60
2022-12-23T07:22:47.705Z,96839.60
2022-12-23T07:25:14.406Z,96838.00
2022-12-23T07:27:41.241Z,96838.80
2022-12-23T07:30:08.840Z,96843.80
2022-12-23T07:32:35.710Z,96833.60
2022-12-23T07:35:02.530Z,96842.60
2022-12-23T07:37:29.176Z,96845.80
2022-12-23T07:39:56.165Z,96848.80
2022-12-23T07:45:10.207Z,96865.40
2022-12-23T07:47:36.910Z,96865.20
2022-12-23T07:50:03.979Z,96876.20
2022-12-23T07:52:30.667Z,96860.60
2022-12-23T07:54:57.314Z,96872.20
2022-12-23T07:57:24.492Z,96867.80
2022-12-23T07:59:51.199Z,96862.80
2022-12-23T08:02:18.156Z,96874.20
2022-12-23T08:04:46.501Z,96873.40
2022-12-23T08:07:13.601Z,96878.40
2022-12-23T08:09:40.299Z,96878.60
2022-12-23T08:12:07.385Z,96875.60
2022-12-23T08:14:34.078Z,96872.40
2022-12-23T08:17:01.003Z,96874.80
2022-12-23T08:19:27.763Z,96873.80
2022-12-23T08:21:54.454Z,96870.60
2022-12-23T08:24:21.389Z,96862.80
2022-12-23T08:26:48.069Z,96860.00
2022-12-23T08:29:14.764Z,96869.20
2022-12-23T08:31:41.532Z,96873.40
2022-12-23T08:34:08.357Z,96872.80
2022-12-23T08:36:36.197Z,96877.60
2022-12-23T08:39:07.182Z,96874.80
2022-12-23T08:41:38.479Z,96873.20
2022-12-23T08:44:05.457Z,96884.00
2022-12-23T08:46:32.355Z,96882.00
2022-12-23T08:48:59.384Z,96889.80
2022-12-23T08:51:28.526Z,96892.00
2022-12-23T08:54:00.520Z,96889.40
2022-12-23T08:56:31.626Z,96884.40
2022-12-23T08:58:58.363Z,96886.60
2022-12-23T09:01:28.338Z,96890.60
2022-12-23T09:03:55.774Z,96886.20
2022-12-23T09:06:29.536Z,96891.60
2022-12-23T09:08:58.233Z,96885.40
2022-12-23T09:11:27.480Z,96881.60
2022-12-23T09:13:54.626Z,96877.00
2022-12-23T09:16:21.928Z,96876.60
2022-12-23T09:18:48.749Z,96874.60
2022-12-23T09:21:18.811Z,96880.20
2022-12-23T09:23:45.528Z,96879.40
2022-12-23T09:26:18.216Z,96880.20
2022-12-23T09:28:44.870Z,96880.00
2022-12-23T09:31:13.155Z,96877.20
2022-12-23T09:33:39.920Z,96868.00
2022-12-23T09:36:07.739Z,96870.20
2022-12-23T09:38:34.825Z,96864.60
2022-12-23T09:41:20.364Z,96864.60
2022-12-23T09:44:15.054Z,96861.40
2022-12-23T09:46:53.705Z,96867.00
2022-12-23T09:49:22.702Z,96867.40
2022-12-23T09:51:54.218Z,96863.20
2022-12-23T09:54:29.611Z,96866.40
2022-12-23T09:57:02.892Z,96867.40
2022-12-23T09:59:57.467Z,96869.40
2022-12-23T10:02:50.776Z,96880.00
2022-12-23T10:05:57.844Z,96881.20
2022-12-23T10:08:33.128Z,96883.40
2022-12-23T10:11:05.001Z,96885.60
2022-12-23T10:13:41.248Z,96890.80
2022-12-23T10:16:16.949Z,96884.80
2022-12-23T10:18:53.929Z,96878.00
2022-12-23T10:21:26.673Z,96878.40
2022-12-23T10:23:54.599Z,96883.40
2022-12-23T10:26:52.006Z,96884.40
2022-12-23T10:29:23.976Z,96886.00
2022-12-23T10:32:41.668Z,96886.80
2022-12-23T10:35:44.305Z,96889.00
2022-12-23T10:38:35.791Z,96893.60
2022-12-23T10:41:09.653Z,96898.00
2022-12-23T10:44:04.523Z,96896.60
2022-12-23T10:47:00.333Z,96888.40
2022-12-23T10:49:36.144Z,96889.00
2022-12-23T10:52:13.159Z,96896.80
2022-12-23T10:54:42.453Z,96895.00
2022-12-23T10:57:09.722Z,96898.00
2022-12-23T10:59:37.128Z,96895.20
2022-12-23T11:02:13.151Z,96889.80
2022-12-23T11:04:46.167Z,96895.40
2022-12-23T11:07:43.857Z,96895.00
2022-12-23T11:10:18.406Z,96888.20
2022-12-23T11:12:49.818Z,96895.80
2022-12-23T11:15:40.030Z,96892.60
2022-12-23T11:18:12.709Z,96886.60
2022-12-23T11:20:42.027Z,96888.80
2022-12-23T11:23:30.776Z,96886.20
2022-12-23T11:26:03.993Z,96885.40
2022-12-23T11:28:32.864Z,96876.80
2022-12-23T11:31:08.634Z,96887.00
2022-12-23T11:33:39.897Z,96883.40
2022-12-23T11:36:08.611Z,96886.20
2022-12-23T11:38:37.619Z,96884.60
2022-12-23T11:41:05.512Z,96885.00
2022-12-23T11:43:33.116Z,96884.20
2022-12-23T11:46:28.372Z,96891.20
2022-12-23T11:49:12.566Z,96883.60
2022-12-23T11:51:39.290Z,96887.40
2022-12-23T11:54:05.988Z,96884.60
2022-12-23T11:56:40.422Z,96885.00
2022-12-23T11:59:24.798Z,96878.80
2022-12-23T12:01:52.143Z,96883.20
2022-12-23T12:04:23.880Z,96886.00
2022-12-23T12:06:56.348Z,96884.40
2022-12-23T12:09:24.939Z,96875.00
2022-12-23T12:12:19.486Z,96872.20
2022-12-23T12:14:56.955Z,96867.60
2022-12-23T12:17:32.864Z,96866.00
2022-12-23T12:20:10.037Z,96867.40
2022-12-23T12:22:42.558Z,96868.20
2022-12-23T12:25:22.696Z,96870.60
2022-12-23T12:27:58.056Z,96873.40
2022-12-23T12:30:33.216Z,96873.40
2022-12-23T12:33:05.742Z,96874.20
2022-12-23T12:35:45.726Z,96877.80
2022-12-23T12:38:25.552Z,96878.80
2022-12-23T12:41:02.750Z,96871.60
2022-12-23T12:43:34.449Z,96869.40
2022-12-23T12:46:32.573Z,96877.00
2022-12-23T12:49:17.663Z,96872.60
2022-12-23T12:51:54.243Z,96874.40
2022-12-23T12:54:35.289Z,96874.20
2022-12-23T12:57:03.244Z,96874.80
2022-12-23T12:59:34.691Z,96869.40
2022-12-23T13:02:57.712Z,96863.00
2022-12-23T13:05:58.617Z,96862.00
2022-12-23T13:08:38.025Z,96857.60
2022-12-23T13:11:14.934Z,96860.20
2022-12-23T13:14:06.283Z,96857.20
2022-12-23T13:17:07.239Z,96860.20
2022-12-23T13:19:52.836Z,96860.80
2022-12-23T13:22:28.665Z,96856.40
2022-12-23T13:25:04.579Z,96851.40
2022-12-23T13:27:35.803Z,96852.80
2022-12-23T13:30:14.019Z,96850.60
2022-12-23T13:32:53.385Z,96849.40
2022-12-23T13:35:35.337Z,96846.20
2022-12-23T13:38:23.689Z,96846.20
2022-12-23T13:41:09.166Z,96845.60
2022-12-23T13:43:56.534Z,96848.60
2022-12-23T13:46:32.982Z,96848.60
2022-12-23T13:49:13.090Z,96845.60
2022-12-23T13:51:52.228Z,96836.80
2022-12-23T13:54:43.733Z,96835.00
2022-12-23T13:57:44.738Z,96835.40
2022-12-23T14:00:17.302Z,96832.40
2022-12-23T14:02:51.508Z,96832.80
2022-12-23T14:05:31.945Z,96830.20
2022-12-23T14:08:05.975Z,96830.80
2022-12-23T14:10:34.523Z,96834.60
2022-12-23T14:13:08.555Z,96828.20
2022-12-23T14:16:02.604Z,96828.20
2022-12-23T14:18:54.366Z,96833.00
2022-12-23T14:22:02.488Z,96818.20
2022-12-23T14:24:47.809Z,96814.40
2022-12-23T14:27:53.810Z,96808.80
2022-12-23T14:30:42.975Z,96806.40
2022-12-23T14:33:19.121Z,96790.80
2022-12-23T14:35:45.780Z,96796.40
2022-12-23T14:38:15.282Z,96791.80
2022-12-23T14:40:41.937Z,96780.60
2022-12-23T14:43:42.886Z,96777.20
2022-12-23T14:46:35.694Z,96774.60
2022-12-23T14:49:37.674Z,96769.40
2022-12-23T14:51:52.766Z,96772.80
2022-12-23T14:54:38.560Z,96779.80
2022-12-23T14:57:14.038Z,96780.20
2022-12-23T14:59:48.193Z,96769.60
2022-12-23T15:02:18.066Z,96772.40
2022-12-23T15:04:48.221Z,96770.40
2022-12-23T15:07:35.340Z,96776.60
2022-12-23T15:10:13.651Z,96780.20
2022-12-23T15:12:43.274Z,96783.00
2022-12-23T15:15:17.666Z,96783.20
2022-12-23T15:17:44.820Z,96788.40
2022-12-23T15:20:14.020Z,96793.00
2022-12-23T15:22:43.018Z,96789.40
2022-12-23T15:25:35.615Z,96789.80
2022-12-23T15:28:03.741Z,96797.20
2022-12-23T15:30:36.952Z,96796.20
2022-12-23T15:33:16.398Z,96795.80
2022-12-23T15:35:53.554Z,96803.80
2022-12-23T15:38:22.469Z,96806.20
2022-12-23T15:41:01.578Z,96804.00
2022-12-23T15:43:28.920Z,96800.80
2022-12-23T15:46:07.218Z,96802.20
2022-12-23T15:48:34.995Z,96801.00
2022-12-23T15:51:06.567Z,96796.00
2022-12-23T15:53:38.612Z,96801.80
2022-12-23T15:56:11.101Z,96806.80
2022-12-23T15:58:41.681Z,96806.00
2022-12-23T16:01:14.946Z,96804.60
2022-12-23T16:03:46.297Z,96803.20
2022-12-23T16:06:47.907Z,96809.60
2022-12-23T16:09:18.046Z,96806.20
2022-12-23T16:12:05.456Z,96802.00
2022-12-23T16:14:39.468Z,96803.80
2022-12-23T16:17:09.238Z,96802.20
2022-12-23T16:19:47.041Z,96812.80
2022-12-23T16:22:37.924Z,96812.80
2022-12-23T16:25:27.836Z,96810.80
2022-12-23T16:27:58.285Z,96816.60
2022-12-23T16:30:55.445Z,96818.20
2022-12-23T16:33:49.462Z,96813.60
2022-12-23T16:36:19.072Z,96809.60
2022-12-23T16:38:47.101Z,96814.80
2022-12-23T16:41:14.155Z,96814.00
2022-12-23T16:43:46.015Z,96811.40
2022-12-23T16:46:19.942Z,96806.00
2022-12-23T16:48:56.063Z,96808.60
2022-12-23T16:51:23.626Z,96803.20
2022-12-23T16:53:53.672Z,96800.60
2022-12-23T16:56:21.778Z,96799.20
2022-12-23T16:58:48.781Z,96800.80
2022-12-23T17:01:22.654Z,96795.00
2022-12-23T17:03:50.169Z,96794.80
2022-12-23T17:06:17.928Z,96795.20
2022-12-23T17:08:45.066Z,96796.00
2022-12-23T17:11:19.547Z,96799.40
2022-12-23T17:13:47.735Z,96801.80
2022-12-23T17:16:20.855Z,96798.60
2022-12-23T17:18:48.644Z,96795.60
2022-12-23T17:21:25.464Z,96800.20
2022-12-23T17:23:56.816Z,96798.60
2022-12-23T17:26:24.389Z,96794.00
2022-12-23T17:28:52.439Z,96791.60
2022-12-23T17:31:26.574Z,96788.40
2022-12-23T17:33:54.781Z,96784.60
2022-12-23T17:36:22.921Z,96783.00
2022-12-23T17:38:50.298Z,96785.80
2022-12-23T17:41:28.892Z,96785.00
2022-12-23T17:43:56.004Z,96789.00
2022-12-23T17:46:23.126Z,96789.60
2022-12-23T17:48:50.278Z,96783.20
2022-12-23T17:51:21.102Z,96779.20
2022-12-23T17:53:55.084Z,96775.80
2022-12-23T17:56:25.201Z,96770.40
2022-12-23T17:58:52.361Z,96766.00
2022-12-23T18:01:23.825Z,96768.60
2022-12-23T18:03:50.766Z,96768.40
2022-12-23T18:06:20.248Z,96767.80
2022-12-23T18:08:47.295Z,96768.60
2022-12-23T18:11:21.313Z,96777.00
2022-12-23T18:13:50.325Z,96770.60
2022-12-23T18:16:17.090Z,96777.00
2022-12-23T18:18:46.704Z,96781.00
2022-12-23T18:21:27.887Z,96778.60
2022-12-23T18:23:58.892Z,96781.60
2022-12-23T18:26:26.323Z,96772.40
2022-12-23T18:28:54.603Z,96774.20
2022-12-23T18:31:27.352Z,96761.40
2022-12-23T18:33:54.538Z,96765.20
2022-12-23T18:36:27.551Z,96772.80
2022-12-23T18:38:55.001Z,96764.80
2022-12-23T18:41:22.866Z,96743.40
2022-12-23T18:43:50.601Z,96776.20
2022-12-23T18:46:20.202Z,96741.60
2022-12-23T18:48:47.189Z,96745.60
2022-12-23T18:51:19.292Z,96737.20
2022-12-23T18:53:47.329Z,96731.00
2022-12-23T18:56:16.431Z,96727.80
2022-12-23T18:58:43.265Z,96729.60
2022-12-23T19:01:14.995Z,96719.40
2022-12-23T19:03:42.762Z,96713.00
2022-12-23T19:06:13.371Z,96710.40
2022-12-23T19:08:41.686Z,96712.80
2022-12-23T19:11:14.765Z,96711.80
2022-12-23T19:13:41.588Z,96702.80
2022-12-23T19:16:13.554Z,96703.00
2022-12-23T19:18:40.465Z,96706.40
2022-12-23T19:21:07.242Z,96703.40
2022-12-23T19:23:34.314Z,96696.60
2022-12-23T19:26:01.216Z,96698.00
2022-12-23T19:28:27.989Z,96690.00
2022-12-23T19:30:54.702Z,96687.40
2022-12-23T19:33:21.582Z,96683.40
2022-12-23T19:35:48.375Z,96696.00
2022-12-23T19:38:15.400Z,96686.00
2022-12-23T19:40:42.169Z,96682.60
2022-12-23T19:43:09.158Z,96666.60
2022-12-23T19:45:36.073Z,96668.20
2022-12-23T19:48:03.153Z,96664.00
2022-12-23T19:50:29.863Z,96654.20
2022-12-23T19:52:57.103Z,96658.60
2022-12-23T19:55:24.264Z,96654.20
2022-12-23T19:57:52.409Z,96660.40
2022-12-23T20:00:19.599Z,96658.20
2022-12-23T20:02:46.526Z,96657.60
2022-12-23T20:05:13.387Z,96657.60
2022-12-23T20:07:40.213Z,96651.80
2022-12-23T20:10:07.972Z,96646.80
2022-12-23T20:12:34.720Z,96650.80
2022-12-23T20:15:01.655Z,96650.80
2022-12-23T20:17:28.393Z,96651.20
2022-12-23T20:19:55.047Z,96646.00
2022-12-23T20:22:21.902Z,96645.20
2022-12-23T20:24:49.235Z,96645.00
2022-12-23T20:27:17.009Z,96641.40
2022-12-23T20:29:45.025Z,96645.60
2022-12-23T20:32:11.691Z,96648.40
2022-12-23T20:34:40.073Z,96644.00
2022-12-23T20:37:07.869Z,96645.80
2022-12-23T20:39:35.054Z,96647.20
2022-12-23T20:42:02.082Z,96641.20
2022-12-23T20:44:37.219Z,96635.80
2022-12-23T20:47:06.220Z,96638.40
2022-12-23T20:49:33.826Z,96648.60
2022-12-23T20:52:00.684Z,96652.40
2022-12-23T20:54:32.867Z,96647.00
2022-12-23T20:57:00.662Z,96644.40
2022-12-23T20:59:27.554Z,96642.60
2022-12-23T21:01:54.930Z,96631.20
2022-12-23T21:04:22.850Z,96633.00
2022-12-23T21:06:49.913Z,96632.20
2022-12-23T21:09:17.494Z,96631.00
2022-12-23T21:11:46.386Z,96625.20
2022-12-23T21:14:14.792Z,96619.20
2022-12-23T21:17:01.780Z,96625.40
2022-12-23T21:19:28.572Z,96621.00
2022-12-23T21:21:55.395Z,96607.00
2022-12-23T21:24:22.198Z,96614.20
2022-12-23T21:26:56.426Z,96618.00
2022-12-23T21:29:24.436Z,96622.20
2022-12-23T21:31:52.027Z,96620.20
2022-12-23T21:34:19.651Z,96623.40
2022-12-23T21:36:46.585Z,96618.20
2022-12-23T21:39:16.812Z,96624.20
2022-12-23T21:41:43.896Z,96623.80
2022-12-23T21:44:13.678Z,96623.20
2022-12-23T21:46:40.678Z,96617.60
2022-12-23T21:49:07.497Z,96623.40
2022-12-23T21:51:40.302Z,96617.20
2022-12-23T21:54:09.729Z,96623.80
2022-12-23T21:56:37.256Z,96618.40
2022-12-23T21:59:06.959Z,96622.40
2022-12-23T22:01:34.430Z,96609.80
2022-12-23T22:04:01.248Z,96620.80
2022-12-23T22:06:31.919Z,96625.20
2022-12-23T22:08:59.595Z,96620.00
2022-12-23T22:11:29.468Z,96636.00
2022-12-23T22:13:57.755Z,96640.80
2022-12-23T22:16:26.528Z,96644.20
2022-12-23T22:18:54.395Z,96649.80
2022-12-23T22:21:23.403Z,96667.00
2022-12-23T22:23:51.357Z,96792.20
2022-12-23T22:26:25.502Z,96794.20
2022-12-23T22:28:57.539Z,96809.20
2022-12-23T22:31:42.100Z,96817.00
2022-12-23T22:34:14.262Z,96823.40
2022-12-23T22:36:41.054Z,96822.80
2022-12-23T22:39:08.290Z,96829.00
2022-12-23T22:41:35.611Z,96829.40
2022-12-23T22:44:02.529Z,96829.20
2022-12-23T22:46:29.969Z,96828.40
2022-12-23T22:48:58.790Z,96839.20
2022-12-23T22:51:28.931Z,96841.80
2022-12-23T22:53:56.755Z,96835.80
2022-12-23T22:56:25.146Z,96842.80
2022-12-23T22:58:52.937Z,96841.60
2022-12-23T23:01:24.284Z,96837.40
2022-12-23T23:03:57.080Z,96844.40
2022-12-23T23:06:26.875Z,96842.00
2022-12-23T23:08:54.827Z,96847.60
2022-12-23T23:11:22.493Z,96849.00
2022-12-23T23:13:49.188Z,96847.20
2022-12-23T23:16:16.103Z,96842.20
2022-12-23T23:18:42.909Z,96852.60
2022-12-23T23:21:12.444Z,96857.60
2022-12-23T23:23:39.077Z,96860.80
2022-12-23T23:26:06.438Z,96858.60
2022-12-23T23:28:33.145Z,96854.60
2022-12-23T23:31:32.018Z,96857.40
2022-12-23T23:33:46.744Z,96874.20
2022-12-23T23:36:13.551Z,96879.40
2022-12-23T23:38:40.259Z,96874.80
2022-12-23T23:41:06.965Z,96878.20
2022-12-23T23:43:33.757Z,96868.00
2022-12-23T23:46:00.505Z,96875.00
2022-12-23T23:48:27.205Z,96874.20
2022-12-23T23:51:02.737Z,96885.20
2022-12-23T23:53:29.394Z,96887.60
2022-12-23T23:56:02.256Z,96901.60
2022-12-23T23:58:29.152Z,96890.00
